sensor_id;sensor_type;location;lat;lon;timestamp;pressure;altitude;pressure_sealevel;temperature;humidity
73558;BME280;61829;53.286;10.434;2023-07-28T00:01:26;99909.94;;;17.29;100.00
73558;BME280;61829;53.286;10.434;2023-07-28T00:03:52;99911.31;;;17.32;100.00
73558;BME280;61829;53.286;10.434;2023-07-28T00:06:18;99899.38;;;17.33;100.00
73558;BME280;61829;53.286;10.434;2023-07-28T00:08:45;99905.50;;;17.23;100.00
73558;BME280;61829;53.286;10.434;2023-07-28T00:11:12;99916.91;;;16.69;100.00
73558;BME280;61829;53.286;10.434;2023-07-28T00:13:39;99908.09;;;17.13;100.00
73558;BME280;61829;53.286;10.434;2023-07-28T00:16:06;99899.41;;;17.16;100.00
73558;BME280;61829;53.286;10.434;2023-07-28T00:18:32;99902.53;;;17.24;100.00
73558;BME280;61829;53.286;10.434;2023-07-28T00:20:58;99906.97;;;17.31;100.00
73558;BME280;61829;53.286;10.434;2023-07-28T00:23:24;99899.41;;;17.38;100.00
73558;BME280;61829;53.286;10.434;2023-07-28T00:25:51;99893.94;;;16.94;100.00
73558;BME280;61829;53.286;10.434;2023-07-28T00:28:18;99902.16;;;16.65;100.00
73558;BME280;61829;53.286;10.434;2023-07-28T00:30:44;99909.91;;;16.56;100.00
73558;BME280;61829;53.286;10.434;2023-07-28T00:33:10;99896.81;;;16.53;100.00
73558;BME280;61829;53.286;10.434;2023-07-28T00:35:36;99894.91;;;16.54;100.00
73558;BME280;61829;53.286;10.434;2023-07-28T00:38:02;99893.00;;;16.54;100.00
73558;BME280;61829;53.286;10.434;2023-07-28T00:40:28;99883.78;;;16.55;100.00
73558;BME280;61829;53.286;10.434;2023-07-28T00:42:54;99893.59;;;16.56;100.00
73558;BME280;61829;53.286;10.434;2023-07-28T00:45:20;99897.63;;;17.04;100.00
73558;BME280;61829;53.286;10.434;2023-07-28T00:47:47;99891.13;;;17.27;100.00
73558;BME280;61829;53.286;10.434;2023-07-28T00:50:13;99884.97;;;17.37;100.00
73558;BME280;61829;53.286;10.434;2023-07-28T00:52:40;99889.91;;;17.40;100.00
73558;BME280;61829;53.286;10.434;2023-07-28T00:55:06;99876.88;;;17.42;100.00
73558;BME280;61829;53.286;10.434;2023-07-28T00:57:33;99882.75;;;17.12;100.00
73558;BME280;61829;53.286;10.434;2023-07-28T01:00:00;99879.03;;;16.79;100.00
73558;BME280;61829;53.286;10.434;2023-07-28T01:02:27;99875.06;;;16.70;100.00
73558;BME280;61829;53.286;10.434;2023-07-28T01:04:53;99869.25;;;16.67;100.00
73558;BME280;61829;53.286;10.434;2023-07-28T01:07:52;99871.44;;;16.65;100.00
73558;BME280;61829;53.286;10.434;2023-07-28T01:10:26;99861.59;;;16.64;100.00
73558;BME280;61829;53.286;10.434;2023-07-28T01:12:52;99863.75;;;16.61;100.00
73558;BME280;61829;53.286;10.434;2023-07-28T01:15:18;99866.72;;;16.60;100.00
73558;BME280;61829;53.286;10.434;2023-07-28T01:17:45;99861.50;;;16.58;100.00
73558;BME280;61829;53.286;10.434;2023-07-28T01:20:11;99872.97;;;16.60;100.00
73558;BME280;61829;53.286;10.434;2023-07-28T01:23:05;99864.81;;;16.60;100.00
73558;BME280;61829;53.286;10.434;2023-07-28T01:28:24;99868.72;;;16.65;100.00
73558;BME280;61829;53.286;10.434;2023-07-28T01:30:51;99870.56;;;16.64;100.00
73558;BME280;61829;53.286;10.434;2023-07-28T01:33:17;99868.13;;;16.63;100.00
73558;BME280;61829;53.286;10.434;2023-07-28T01:35:43;99867.03;;;16.64;100.00
73558;BME280;61829;53.286;10.434;2023-07-28T01:38:09;99865.13;;;16.64;100.00
73558;BME280;61829;53.286;10.434;2023-07-28T01:40:35;99866.81;;;16.65;100.00
73558;BME280;61829;53.286;10.434;2023-07-28T01:43:01;99864.09;;;16.65;100.00
73558;BME280;61829;53.286;10.434;2023-07-28T01:45:27;99863.81;;;16.67;100.00
73558;BME280;61829;53.286;10.434;2023-07-28T01:47:54;99860.88;;;16.68;100.00
73558;BME280;61829;53.286;10.434;2023-07-28T01:50:20;99860.59;;;16.70;100.00
73558;BME280;61829;53.286;10.434;2023-07-28T01:52:46;99862.28;;;16.71;100.00
73558;BME280;61829;53.286;10.434;2023-07-28T01:55:12;99866.63;;;16.72;100.00
73558;BME280;61829;53.286;10.434;2023-07-28T01:57:39;99861.19;;;16.72;100.00
73558;BME280;61829;53.286;10.434;2023-07-28T02:00:06;99862.81;;;16.73;100.00
73558;BME280;61829;53.286;10.434;2023-07-28T02:02:33;99870.97;;;16.73;100.00
73558;BME280;61829;53.286;10.434;2023-07-28T02:04:59;99873.69;;;16.73;100.00
73558;BME280;61829;53.286;10.434;2023-07-28T02:07:26;99868.25;;;16.73;100.00
73558;BME280;61829;53.286;10.434;2023-07-28T02:09:51;99879.16;;;16.73;100.00
73558;BME280;61829;53.286;10.434;2023-07-28T02:12:18;99869.94;;;16.74;100.00
73558;BME280;61829;53.286;10.434;2023-07-28T02:14:43;99872.66;;;16.74;100.00
73558;BME280;61829;53.286;10.434;2023-07-28T02:17:09;99875.38;;;16.74;100.00
73558;BME280;61829;53.286;10.434;2023-07-28T02:19:36;99870.75;;;16.74;100.00
73558;BME280;61829;53.286;10.434;2023-07-28T02:22:02;99877.81;;;16.75;100.00
73558;BME280;61829;53.286;10.434;2023-07-28T02:24:28;99865.06;;;16.76;100.00
73558;BME280;61829;53.286;10.434;2023-07-28T02:26:54;99868.38;;;16.78;100.00
73558;BME280;61829;53.286;10.434;2023-07-28T02:29:20;99873.00;;;16.77;100.00
73558;BME280;61829;53.286;10.434;2023-07-28T02:31:46;99871.91;;;16.78;100.00
73558;BME280;61829;53.286;10.434;2023-07-28T02:34:12;99876.53;;;16.78;100.00
73558;BME280;61829;53.286;10.434;2023-07-28T02:36:38;99881.41;;;16.76;100.00
73558;BME280;61829;53.286;10.434;2023-07-28T02:39:04;99886.09;;;16.80;100.00
73558;BME280;61829;53.286;10.434;2023-07-28T02:41:30;99886.38;;;16.79;100.00
73558;BME280;61829;53.286;10.434;2023-07-28T02:43:56;99889.09;;;16.79;100.00
73558;BME280;61829;53.286;10.434;2023-07-28T02:46:22;99890.97;;;16.78;100.00
73558;BME280;61829;53.286;10.434;2023-07-28T02:48:48;99893.44;;;16.80;100.00
73558;BME280;61829;53.286;10.434;2023-07-28T02:51:14;99903.00;;;16.82;100.00
73558;BME280;61829;53.286;10.434;2023-07-28T02:53:40;99897.56;;;16.82;100.00
73558;BME280;61829;53.286;10.434;2023-07-28T02:56:06;99895.66;;;16.83;100.00
73558;BME280;61829;53.286;10.434;2023-07-28T02:58:32;99898.97;;;16.85;100.00
73558;BME280;61829;53.286;10.434;2023-07-28T03:00:58;99895.16;;;16.86;100.00
73558;BME280;61829;53.286;10.434;2023-07-28T03:03:24;99899.28;;;16.89;100.00
73558;BME280;61829;53.286;10.434;2023-07-28T03:05:54;99899.09;;;16.95;100.00
73558;BME280;61829;53.286;10.434;2023-07-28T03:08:20;99908.34;;;16.94;100.00
73558;BME280;61829;53.286;10.434;2023-07-28T03:10:46;99902.09;;;16.94;100.00
73558;BME280;61829;53.286;10.434;2023-07-28T03:13:12;99907.53;;;16.94;100.00
73558;BME280;61829;53.286;10.434;2023-07-28T03:15:38;99914.63;;;16.95;100.00
73558;BME280;61829;53.286;10.434;2023-07-28T03:18:04;99914.88;;;16.93;100.00
73558;BME280;61829;53.286;10.434;2023-07-28T03:20:30;99915.94;;;16.92;100.00
73558;BME280;61829;53.286;10.434;2023-07-28T03:22:58;99915.94;;;16.92;100.00
73558;BME280;61829;53.286;10.434;2023-07-28T03:25:25;99911.31;;;16.93;100.00
73558;BME280;61829;53.286;10.434;2023-07-28T03:27:50;99913.78;;;16.94;100.00
73558;BME280;61829;53.286;10.434;2023-07-28T03:30:18;99913.56;;;16.96;100.00
73558;BME280;61829;53.286;10.434;2023-07-28T03:32:44;99921.72;;;16.96;100.00
73558;BME280;61829;53.286;10.434;2023-07-28T03:35:10;99920.88;;;16.95;100.00
73558;BME280;61829;53.286;10.434;2023-07-28T03:37:37;99923.59;;;16.95;100.00
73558;BME280;61829;53.286;10.434;2023-07-28T03:40:03;99922.53;;;16.96;100.00
73558;BME280;61829;53.286;10.434;2023-07-28T03:42:29;99928.00;;;16.96;100.00
73558;BME280;61829;53.286;10.434;2023-07-28T03:44:56;99931.25;;;16.98;100.00
73558;BME280;61829;53.286;10.434;2023-07-28T03:47:22;99920.97;;;17.00;100.00
73558;BME280;61829;53.286;10.434;2023-07-28T03:49:48;99929.13;;;17.00;100.00
73558;BME280;61829;53.286;10.434;2023-07-28T03:52:13;99921.53;;;17.02;100.00
73558;BME280;61829;53.286;10.434;2023-07-28T03:54:40;99922.34;;;17.03;100.00
73558;BME280;61829;53.286;10.434;2023-07-28T03:57:06;99928.63;;;17.03;100.00
73558;BME280;61829;53.286;10.434;2023-07-28T03:59:32;99934.06;;;17.03;100.00
73558;BME280;61829;53.286;10.434;2023-07-28T04:01:58;99935.16;;;17.02;100.00
73558;BME280;61829;53.286;10.434;2023-07-28T04:04:24;99938.09;;;17.01;100.00
73558;BME280;61829;53.286;10.434;2023-07-28T04:06:50;99940.84;;;17.01;100.00
73558;BME280;61829;53.286;10.434;2023-07-28T04:09:18;99941.09;;;16.99;100.00
73558;BME280;61829;53.286;10.434;2023-07-28T04:11:45;99949.84;;;17.40;100.00
73558;BME280;61829;53.286;10.434;2023-07-28T04:14:12;99945.13;;;17.53;100.00
73558;BME280;61829;53.286;10.434;2023-07-28T04:16:38;99951.13;;;17.55;100.00
73558;BME280;61829;53.286;10.434;2023-07-28T04:19:04;99957.72;;;17.59;100.00
73558;BME280;61829;53.286;10.434;2023-07-28T04:21:30;99953.28;;;17.53;100.00
73558;BME280;61829;53.286;10.434;2023-07-28T04:23:57;99958.16;;;17.50;100.00
73558;BME280;61829;53.286;10.434;2023-07-28T04:26:24;99951.31;;;17.48;100.00
73558;BME280;61829;53.286;10.434;2023-07-28T04:28:51;99965.16;;;17.46;100.00
73558;BME280;61829;53.286;10.434;2023-07-28T04:31:17;99965.75;;;17.48;100.00
73558;BME280;61829;53.286;10.434;2023-07-28T04:33:43;99972.78;;;17.44;100.00
73558;BME280;61829;53.286;10.434;2023-07-28T04:36:09;99967.34;;;17.44;100.00
73558;BME280;61829;53.286;10.434;2023-07-28T04:38:36;99972.78;;;17.44;100.00
73558;BME280;61829;53.286;10.434;2023-07-28T04:41:03;99971.97;;;17.44;100.00
73558;BME280;61829;53.286;10.434;2023-07-28T04:43:35;99978.25;;;17.44;100.00
73558;BME280;61829;53.286;10.434;2023-07-28T04:46:01;99983.69;;;17.44;100.00
73558;BME280;61829;53.286;10.434;2023-07-28T04:48:34;99979.63;;;17.47;100.00
73558;BME280;61829;53.286;10.434;2023-07-28T04:51:00;99988.63;;;17.47;100.00
73558;BME280;61829;53.286;10.434;2023-07-28T04:53:27;99990.34;;;17.54;100.00
73558;BME280;61829;53.286;10.434;2023-07-28T04:55:53;99990.66;;;17.57;100.00
73558;BME280;61829;53.286;10.434;2023-07-28T04:58:19;99995.59;;;17.60;100.00
73558;BME280;61829;53.286;10.434;2023-07-28T05:00:45;100001.31;;;17.59;100.00
73558;BME280;61829;53.286;10.434;2023-07-28T05:03:11;99998.31;;;17.60;100.00
73558;BME280;61829;53.286;10.434;2023-07-28T05:05:37;99995.38;;;17.62;100.00
73558;BME280;61829;53.286;10.434;2023-07-28T05:08:03;100002.13;;;17.59;100.00
73558;BME280;61829;53.286;10.434;2023-07-28T05:10:29;100005.09;;;17.58;100.00
73558;BME280;61829;53.286;10.434;2023-07-28T05:12:55;100005.88;;;17.53;100.00
73558;BME280;61829;53.286;10.434;2023-07-28T05:15:21;100003.66;;;17.50;100.00
73558;BME280;61829;53.286;10.434;2023-07-28T05:17:49;100006.09;;;17.51;100.00
73558;BME280;61829;53.286;10.434;2023-07-28T05:20:15;100004.97;;;17.47;100.00
73558;BME280;61829;53.286;10.434;2023-07-28T05:22:42;100014.69;;;17.43;100.00
73558;BME280;61829;53.286;10.434;2023-07-28T05:25:08;100026.59;;;17.37;100.00
73558;BME280;61829;53.286;10.434;2023-07-28T05:27:34;100024.38;;;17.34;100.00
73558;BME280;61829;53.286;10.434;2023-07-28T05:30:00;100029.00;;;17.34;100.00
73558;BME280;61829;53.286;10.434;2023-07-28T05:32:26;100032.56;;;17.34;100.00
73558;BME280;61829;53.286;10.434;2023-07-28T05:34:52;100032.63;;;17.39;100.00
73558;BME280;61829;53.286;10.434;2023-07-28T05:37:19;100037.66;;;17.47;100.00
73558;BME280;61829;53.286;10.434;2023-07-28T05:39:45;100034.59;;;17.61;100.00
73558;BME280;61829;53.286;10.434;2023-07-28T05:42:11;100027.13;;;17.73;100.00
73558;BME280;61829;53.286;10.434;2023-07-28T05:44:37;100024.31;;;17.85;100.00
73558;BME280;61829;53.286;10.434;2023-07-28T05:47:03;100025.97;;;18.08;100.00
73558;BME280;61829;53.286;10.434;2023-07-28T05:49:30;100032.56;;;18.12;100.00
73558;BME280;61829;53.286;10.434;2023-07-28T05:51:56;100033.69;;;18.16;100.00
73558;BME280;61829;53.286;10.434;2023-07-28T05:54:22;100033.44;;;18.17;99.80
73558;BME280;61829;53.286;10.434;2023-07-28T05:56:49;100038.63;;;18.19;98.39
73558;BME280;61829;53.286;10.434;2023-07-28T05:59:15;100040.53;;;18.18;97.87
73558;BME280;61829;53.286;10.434;2023-07-28T06:01:42;100063.25;;;18.24;98.11
73558;BME280;61829;53.286;10.434;2023-07-28T06:04:08;100048.00;;;18.28;98.22
73558;BME280;61829;53.286;10.434;2023-07-28T06:06:34;100051.16;;;18.42;98.26
73558;BME280;61829;53.286;10.434;2023-07-28T06:09:00;100048.56;;;18.52;97.07
73558;BME280;61829;53.286;10.434;2023-07-28T06:11:26;100055.94;;;18.52;96.71
73558;BME280;61829;53.286;10.434;2023-07-28T06:13:52;100046.56;;;18.70;96.07
73558;BME280;61829;53.286;10.434;2023-07-28T06:16:18;100061.97;;;18.81;94.09
73558;BME280;61829;53.286;10.434;2023-07-28T06:18:44;100066.97;;;18.89;93.97
73558;BME280;61829;53.286;10.434;2023-07-28T06:21:10;100067.34;;;18.98;93.73
73558;BME280;61829;53.286;10.434;2023-07-28T06:23:36;100065.41;;;18.98;92.04
73558;BME280;61829;53.286;10.434;2023-07-28T06:26:02;100061.00;;;18.92;91.62
73558;BME280;61829;53.286;10.434;2023-07-28T06:28:28;100061.75;;;18.88;91.81
73558;BME280;61829;53.286;10.434;2023-07-28T06:30:55;100069.50;;;18.96;92.68
73558;BME280;61829;53.286;10.434;2023-07-28T06:33:21;100078.25;;;18.98;92.51
73558;BME280;61829;53.286;10.434;2023-07-28T06:35:47;100084.53;;;18.98;92.07
73558;BME280;61829;53.286;10.434;2023-07-28T06:38:13;100086.50;;;19.03;92.02
73558;BME280;61829;53.286;10.434;2023-07-28T06:41:00;100085.97;;;19.06;92.28
73558;BME280;61829;53.286;10.434;2023-07-28T06:43:26;100096.69;;;19.13;91.58
73558;BME280;61829;53.286;10.434;2023-07-28T06:45:53;100095.34;;;19.15;91.17
73558;BME280;61829;53.286;10.434;2023-07-28T06:48:19;100099.22;;;19.19;91.52
73558;BME280;61829;53.286;10.434;2023-07-28T06:50:45;100097.03;;;19.21;91.35
73558;BME280;61829;53.286;10.434;2023-07-28T06:53:11;100100.16;;;19.35;91.37
73558;BME280;61829;53.286;10.434;2023-07-28T06:55:37;100099.88;;;19.69;90.26
73558;BME280;61829;53.286;10.434;2023-07-28T06:58:08;100100.31;;;19.93;89.60
73558;BME280;61829;53.286;10.434;2023-07-28T07:00:35;100097.41;;;20.10;87.15
73558;BME280;61829;53.286;10.434;2023-07-28T07:03:01;100102.38;;;20.23;85.45
73558;BME280;61829;53.286;10.434;2023-07-28T07:05:27;100102.69;;;20.32;85.04
73558;BME280;61829;53.286;10.434;2023-07-28T07:07:53;100103.56;;;20.42;85.09
73558;BME280;61829;53.286;10.434;2023-07-28T07:10:20;100102.25;;;19.98;89.16
73558;BME280;61829;53.286;10.434;2023-07-28T07:12:47;100111.00;;;20.00;89.50
73558;BME280;61829;53.286;10.434;2023-07-28T07:15:13;100114.91;;;20.14;89.33
73558;BME280;61829;53.286;10.434;2023-07-28T07:17:39;100120.97;;;20.21;86.00
73558;BME280;61829;53.286;10.434;2023-07-28T07:20:06;100121.28;;;20.25;86.46
73558;BME280;61829;53.286;10.434;2023-07-28T07:22:32;100131.59;;;20.70;84.58
73558;BME280;61829;53.286;10.434;2023-07-28T07:24:59;100133.59;;;21.11;82.86
73558;BME280;61829;53.286;10.434;2023-07-28T07:27:25;100132.25;;;21.28;82.03
73558;BME280;61829;53.286;10.434;2023-07-28T07:29:52;100129.25;;;21.30;81.07
73558;BME280;61829;53.286;10.434;2023-07-28T07:32:18;100125.13;;;21.27;80.83
73558;BME280;61829;53.286;10.434;2023-07-28T07:34:44;100134.72;;;21.30;81.33
73558;BME280;61829;53.286;10.434;2023-07-28T07:37:10;100137.78;;;21.39;81.65
73558;BME280;61829;53.286;10.434;2023-07-28T07:39:36;100143.53;;;21.47;80.19
73558;BME280;61829;53.286;10.434;2023-07-28T07:42:02;100145.19;;;21.43;79.05
73558;BME280;61829;53.286;10.434;2023-07-28T07:44:28;100153.66;;;21.32;80.28
73558;BME280;61829;53.286;10.434;2023-07-28T07:46:55;100158.28;;;21.31;81.34
73558;BME280;61829;53.286;10.434;2023-07-28T07:49:22;100153.97;;;21.40;80.91
73558;BME280;61829;53.286;10.434;2023-07-28T07:51:48;100149.25;;;21.36;81.25
73558;BME280;61829;53.286;10.434;2023-07-28T07:54:15;100158.06;;;21.53;80.48
73558;BME280;61829;53.286;10.434;2023-07-28T07:56:44;100150.13;;;21.51;80.56
73558;BME280;61829;53.286;10.434;2023-07-28T07:59:12;100154.22;;;21.54;80.70
73558;BME280;61829;53.286;10.434;2023-07-28T08:01:39;100158.34;;;21.51;79.29
73558;BME280;61829;53.286;10.434;2023-07-28T08:04:05;100160.53;;;21.49;78.64
73558;BME280;61829;53.286;10.434;2023-07-28T08:06:31;100169.84;;;21.48;79.42
73558;BME280;61829;53.286;10.434;2023-07-28T08:08:57;100170.69;;;21.49;80.40
73558;BME280;61829;53.286;10.434;2023-07-28T08:11:25;100172.06;;;21.46;79.98
73558;BME280;61829;53.286;10.434;2023-07-28T08:13:51;100176.44;;;21.47;79.90
73558;BME280;61829;53.286;10.434;2023-07-28T08:16:16;100180.00;;;21.38;78.89
73558;BME280;61829;53.286;10.434;2023-07-28T08:18:43;100183.81;;;21.37;79.33
73558;BME280;61829;53.286;10.434;2023-07-28T08:21:09;100191.59;;;20.77;80.36
73558;BME280;61829;53.286;10.434;2023-07-28T08:23:35;100189.53;;;20.52;84.27
73558;BME280;61829;53.286;10.434;2023-07-28T08:26:01;100194.56;;;20.65;85.23
73558;BME280;61829;53.286;10.434;2023-07-28T08:28:28;100196.31;;;21.02;83.34
73558;BME280;61829;53.286;10.434;2023-07-28T08:30:57;100205.38;;;21.07;82.81
73558;BME280;61829;53.286;10.434;2023-07-28T08:33:23;100204.06;;;21.30;81.76
73558;BME280;61829;53.286;10.434;2023-07-28T08:35:49;100204.34;;;21.29;81.08
73558;BME280;61829;53.286;10.434;2023-07-28T08:38:16;100214.72;;;21.22;80.25
73558;BME280;61829;53.286;10.434;2023-07-28T08:40:43;100213.59;;;21.07;79.34
73558;BME280;61829;53.286;10.434;2023-07-28T08:43:10;100218.00;;;20.51;82.09
73558;BME280;61829;53.286;10.434;2023-07-28T08:45:36;100220.84;;;20.61;83.47
73558;BME280;61829;53.286;10.434;2023-07-28T08:48:03;100221.78;;;20.92;82.66
73558;BME280;61829;53.286;10.434;2023-07-28T08:50:29;100222.31;;;20.36;85.97
73558;BME280;61829;53.286;10.434;2023-07-28T08:52:56;100224.41;;;20.24;86.98
73558;BME280;61829;53.286;10.434;2023-07-28T08:55:22;100221.94;;;20.23;87.68
73558;BME280;61829;53.286;10.434;2023-07-28T08:57:49;100224.78;;;20.43;86.08
73558;BME280;61829;53.286;10.434;2023-07-28T09:00:15;100232.16;;;20.37;86.15
73558;BME280;61829;53.286;10.434;2023-07-28T09:02:44;100232.16;;;20.37;85.92
73558;BME280;61829;53.286;10.434;2023-07-28T09:05:20;100230.56;;;20.47;86.57
73558;BME280;61829;53.286;10.434;2023-07-28T09:07:47;100232.81;;;20.55;86.02
73558;BME280;61829;53.286;10.434;2023-07-28T09:10:17;100227.16;;;20.67;85.94
73558;BME280;61829;53.286;10.434;2023-07-28T09:12:48;100229.91;;;20.67;85.98
73558;BME280;61829;53.286;10.434;2023-07-28T09:15:14;100233.13;;;20.63;85.46
73558;BME280;61829;53.286;10.434;2023-07-28T09:17:45;100232.09;;;20.70;85.34
73558;BME280;61829;53.286;10.434;2023-07-28T09:20:15;100233.22;;;20.79;85.25
73558;BME280;61829;53.286;10.434;2023-07-28T09:22:43;100228.31;;;20.86;84.85
73558;BME280;61829;53.286;10.434;2023-07-28T09:25:16;100229.94;;;20.82;84.21
73558;BME280;61829;53.286;10.434;2023-07-28T09:27:52;100231.88;;;20.81;85.64
73558;BME280;61829;53.286;10.434;2023-07-28T09:30:18;100226.38;;;20.81;83.87
73558;BME280;61829;53.286;10.434;2023-07-28T09:32:49;100233.50;;;20.82;83.67
73558;BME280;61829;53.286;10.434;2023-07-28T09:35:16;100234.31;;;20.83;82.74
73558;BME280;61829;53.286;10.434;2023-07-28T09:37:45;100234.91;;;20.90;83.93
73558;BME280;61829;53.286;10.434;2023-07-28T09:40:13;100230.28;;;20.96;82.81
73558;BME280;61829;53.286;10.434;2023-07-28T09:42:41;100232.22;;;21.05;81.99
73558;BME280;61829;53.286;10.434;2023-07-28T09:45:09;100233.03;;;21.01;83.06
73558;BME280;61829;53.286;10.434;2023-07-28T09:47:38;100234.16;;;21.10;81.82
73558;BME280;61829;53.286;10.434;2023-07-28T09:50:05;100242.41;;;21.25;81.35
73558;BME280;61829;53.286;10.434;2023-07-28T09:52:38;100248.13;;;21.14;83.64
73558;BME280;61829;53.286;10.434;2023-07-28T09:55:09;100249.81;;;21.15;81.99
73558;BME280;61829;53.286;10.434;2023-07-28T09:57:54;100248.41;;;21.17;82.42
73558;BME280;61829;53.286;10.434;2023-07-28T10:00:22;100255.28;;;21.20;83.33
73558;BME280;61829;53.286;10.434;2023-07-28T10:02:49;100253.63;;;21.19;81.38
73558;BME280;61829;53.286;10.434;2023-07-28T10:05:18;100252.94;;;21.59;78.71
73558;BME280;61829;53.286;10.434;2023-07-28T10:07:48;100255.41;;;21.61;79.20
73558;BME280;61829;53.286;10.434;2023-07-28T10:10:14;100253.50;;;21.71;80.60
73558;BME280;61829;53.286;10.434;2023-07-28T10:12:41;100256.78;;;21.73;81.48
73558;BME280;61829;53.286;10.434;2023-07-28T10:15:12;100252.69;;;21.86;80.55
73558;BME280;61829;53.286;10.434;2023-07-28T10:17:43;100254.88;;;21.94;78.88
73558;BME280;61829;53.286;10.434;2023-07-28T10:23:03;100262.53;;;22.33;79.42
73558;BME280;61829;53.286;10.434;2023-07-28T10:25:32;100267.72;;;22.60;77.06
73558;BME280;61829;53.286;10.434;2023-07-28T10:28:00;100267.41;;;22.67;75.22
73558;BME280;61829;53.286;10.434;2023-07-28T10:30:27;100264.41;;;22.69;74.20
73558;BME280;61829;53.286;10.434;2023-07-28T10:32:54;100269.69;;;22.34;75.79
73558;BME280;61829;53.286;10.434;2023-07-28T10:35:27;100271.34;;;22.35;77.16
73558;BME280;61829;53.286;10.434;2023-07-28T10:37:55;100275.44;;;22.38;78.09
73558;BME280;61829;53.286;10.434;2023-07-28T10:40:32;100278.75;;;22.45;77.80
73558;BME280;61829;53.286;10.434;2023-07-28T10:43:05;100281.22;;;22.36;77.36
73558;BME280;61829;53.286;10.434;2023-07-28T10:45:32;100285.34;;;22.34;77.53
73558;BME280;61829;53.286;10.434;2023-07-28T10:47:59;100276.28;;;22.33;78.45
73558;BME280;61829;53.286;10.434;2023-07-28T10:50:30;100277.63;;;22.36;78.40
73558;BME280;61829;53.286;10.434;2023-07-28T10:52:57;100265.28;;;22.38;76.25
73558;BME280;61829;53.286;10.434;2023-07-28T10:55:27;100269.00;;;22.83;76.92
73558;BME280;61829;53.286;10.434;2023-07-28T10:57:55;100276.44;;;22.88;76.98
73558;BME280;61829;53.286;10.434;2023-07-28T11:00:22;100273.13;;;22.96;76.80
73558;BME280;61829;53.286;10.434;2023-07-28T11:02:52;100271.69;;;23.09;75.22
73558;BME280;61829;53.286;10.434;2023-07-28T11:05:26;100268.81;;;23.29;76.13
73558;BME280;61829;53.286;10.434;2023-07-28T11:08:01;100264.34;;;23.44;72.23
73558;BME280;61829;53.286;10.434;2023-07-28T11:10:28;100265.47;;;23.38;72.69
73558;BME280;61829;53.286;10.434;2023-07-28T11:12:57;100267.78;;;23.20;71.21
73558;BME280;61829;53.286;10.434;2023-07-28T11:15:24;100272.25;;;23.06;72.83
73558;BME280;61829;53.286;10.434;2023-07-28T11:17:51;100283.78;;;23.08;74.90
73558;BME280;61829;53.286;10.434;2023-07-28T11:20:26;100279.66;;;23.11;73.53
73558;BME280;61829;53.286;10.434;2023-07-28T11:22:57;100276.09;;;23.10;73.31
73558;BME280;61829;53.286;10.434;2023-07-28T11:25:24;100274.19;;;23.05;72.27
73558;BME280;61829;53.286;10.434;2023-07-28T11:28:09;100274.75;;;22.92;73.43
73558;BME280;61829;53.286;10.434;2023-07-28T11:30:36;100279.97;;;22.94;74.27
73558;BME280;61829;53.286;10.434;2023-07-28T11:33:09;100273.94;;;23.02;74.04
73558;BME280;61829;53.286;10.434;2023-07-28T11:35:37;100285.63;;;23.28;74.35
73558;BME280;61829;53.286;10.434;2023-07-28T11:38:04;100276.47;;;23.43;71.48
73558;BME280;61829;53.286;10.434;2023-07-28T11:40:30;100291.00;;;23.48;70.76
73558;BME280;61829;53.286;10.434;2023-07-28T11:42:57;100285.97;;;23.61;71.77
73558;BME280;61829;53.286;10.434;2023-07-28T11:45:23;100289.50;;;23.71;71.61
73558;BME280;61829;53.286;10.434;2023-07-28T11:47:57;100297.97;;;23.80;71.14
73558;BME280;61829;53.286;10.434;2023-07-28T11:50:28;100300.13;;;23.88;70.58
73558;BME280;61829;53.286;10.434;2023-07-28T11:52:57;100299.53;;;23.91;70.75
73558;BME280;61829;53.286;10.434;2023-07-28T11:55:23;100301.22;;;23.92;70.06
73558;BME280;61829;53.286;10.434;2023-07-28T11:57:51;100303.47;;;23.80;69.43
73558;BME280;61829;53.286;10.434;2023-07-28T12:00:18;100309.56;;;23.77;71.30
73558;BME280;61829;53.286;10.434;2023-07-28T12:03:03;100312.56;;;23.81;72.93
73558;BME280;61829;53.286;10.434;2023-07-28T12:05:30;100318.31;;;23.84;72.33
73558;BME280;61829;53.286;10.434;2023-07-28T12:07:56;100320.25;;;23.84;71.99
73558;BME280;61829;53.286;10.434;2023-07-28T12:10:22;100334.66;;;23.70;71.55
73558;BME280;61829;53.286;10.434;2023-07-28T12:12:50;100326.72;;;23.59;71.95
73558;BME280;61829;53.286;10.434;2023-07-28T12:15:29;100333.88;;;23.54;72.80
73558;BME280;61829;53.286;10.434;2023-07-28T12:20:42;100328.66;;;23.53;72.59
73558;BME280;61829;53.286;10.434;2023-07-28T12:23:19;100337.44;;;23.55;72.59
73558;BME280;61829;53.286;10.434;2023-07-28T12:25:46;100328.91;;;23.57;72.30
73558;BME280;61829;53.286;10.434;2023-07-28T12:28:13;100333.59;;;23.56;73.27
73558;BME280;61829;53.286;10.434;2023-07-28T12:30:39;100344.28;;;23.63;72.80
73558;BME280;61829;53.286;10.434;2023-07-28T12:33:06;100342.59;;;23.72;71.85
73558;BME280;61829;53.286;10.434;2023-07-28T12:35:33;100348.06;;;23.82;71.42
73558;BME280;61829;53.286;10.434;2023-07-28T12:38:06;100346.38;;;23.86;70.43
73558;BME280;61829;53.286;10.434;2023-07-28T12:40:33;100349.88;;;23.97;70.79
73558;BME280;61829;53.286;10.434;2023-07-28T12:43:01;100353.69;;;24.06;70.04
73558;BME280;61829;53.286;10.434;2023-07-28T12:45:28;100360.22;;;24.15;69.41
73558;BME280;61829;53.286;10.434;2023-07-28T12:47:56;100356.88;;;24.18;69.13
73558;BME280;61829;53.286;10.434;2023-07-28T12:50:23;100367.28;;;24.27;69.97